KSEM/SEM METAR and TAF weather

Enter ICAO airport designator
Station Type Date Time Source
KSEM METAR 2020/09/26 11:35 UTC NOAA

KSEM 261135Z AUTO 00000KT 9SM OVC038 21/20 A3000 RMK AO2


Station Type Date Time Source
KSEM Decoded METAR 2020/09/26 11:35 UTC NOAA

Craig Field / Selma, AL, United States (KSEM) 32-21N 086-59W
Sep 26, 2020 - 07:35 AM EDT / 2020.09.26 1135 UTC
Wind: Calm:0
Visibility: 9 mile(s):0
Sky conditions: overcast
Temperature: 69 F (21 C)
Dew Point: 68 F (20 C)
Relative Humidity: 94%
Pressure (altimeter): 30 in. Hg (1015 hPa)
ob: KSEM 261135Z AUTO 00000KT 9SM OVC038 21/20 A3000 RMK AO2
cycle: 11

Station Type Date Time Source
KSEM TAF UTC NOAA

Error!

Example: see airport list